Ichikawa, Japan

10:45 AM JST on December 23, 2014 (GMT +0900)
Kosuge-st | Change Station
CLOSE
Current Station
Personal Weather Station
Location: Adachi, Tokyo
Elevation: 40 ft
Nearby Weather Stations

Elev 40 ft 35.76 °N, 139.81 °E | Updated 51 seconds ago

Partly Cloudy
Partly Cloudy
54.7 °F
Feels Like 54.7 °F
N
3.8
Wind Variable Wind from SE
Gusts 5.4 mph

Today
High -- | Low -- °F
--% Chance of Precip.
Yesterday
High -- | Low -- °F
Precip. -- in
6:47 AM 4:31 PM
New Moon, 1% visible
Pressure 30.12 in
Visibility 6.2 miles
Clouds Few 3000 ft
Dew Point 23 °F
Humidity 29%
Rainfall 0.00 in
Snow Depth Not available.
UV 2 out of 12
Pollen Not available.
Air Quality Not available.
Flu Activity Not available.
METAR RJTI 230100Z 32013G24KT 290V010 9999 FEW030 08/M08 Q1020

More Conditions Fewer Conditions

Pressure 30.12 in
Visibility 6.2 miles
Clouds Few 3000 ft
Dew Point 23 °F
Humidity 29%
Rainfall 0.00 in
Snow Depth Not available.
UV 2 out of 12
Pollen Not available.
Air Quality Not available.
Flu Activity Not available.
METAR RJTI 230100Z 32013G24KT 290V010 9999 FEW030 08/M08 Q1020

More Conditions Fewer Conditions

10-Day Weather Forecast

Almanac

Astronomy

Dec. 23, 2014 Rise Set
Actual Time
Civil Twilight
Nautical Twilight
Astronomical Twilight
Moon
Length of Visible Light
Length of Day
Tomorrow will be .
, % of the Moon is Illuminated

Today's Extremes

Country Highs Country Lows

Community

WunderPhotos

Upload Photos

1,779,753 photos uploaded!

WunderBlogs® & News

Nearby

Air Quality

  Air Quality AQ Index Pollutant
Not available.

Snow Depth

Station Depth Elevation

Earthquake Activity

City Distance Mag. Time & Date
Minimum magnitude displayed is 2.5.

Coastal Water Temperatures

Place Temperature

Nearby Weather Stations